createdAt,value
2023-12-28T00:00:08.363Z,95497.00
2023-12-28T00:01:08.511Z,95496.00
2023-12-28T00:02:08.417Z,95499.00
2023-12-28T00:03:08.523Z,95502.00
2023-12-28T00:04:08.518Z,95504.00
2023-12-28T00:05:08.484Z,95504.00
2023-12-28T00:06:08.562Z,95506.00
2023-12-28T00:07:08.693Z,95506.00
2023-12-28T00:08:08.609Z,95505.00
2023-12-28T00:10:08.647Z,95500.00
2023-12-28T00:11:08.659Z,95499.00
2023-12-28T00:12:08.660Z,95499.00
2023-12-28T00:13:08.690Z,95502.00
2023-12-28T00:14:08.764Z,95504.00
2023-12-28T00:15:08.729Z,95505.00
2023-12-28T00:16:08.771Z,95509.00
2023-12-28T00:17:08.820Z,95511.00
2023-12-28T00:18:08.913Z,95511.00
2023-12-28T00:19:09.123Z,95508.00
2023-12-28T00:20:08.886Z,95506.00
2023-12-28T00:21:08.909Z,95506.00
2023-12-28T00:22:08.930Z,95506.00
2023-12-28T00:23:08.980Z,95509.00
2023-12-28T00:24:09.019Z,95511.00
2023-12-28T00:25:09.050Z,95511.00
2023-12-28T00:26:09.041Z,95510.00
2023-12-28T00:27:09.086Z,95511.00
2023-12-28T00:28:09.129Z,95511.00
2023-12-28T00:29:09.134Z,95514.00
2023-12-28T00:30:09.179Z,95514.00
2023-12-28T00:31:09.234Z,95516.00
2023-12-28T00:32:09.208Z,95513.00
2023-12-28T00:33:09.247Z,95513.00
2023-12-28T00:34:09.359Z,95511.00
2023-12-28T00:35:09.306Z,95510.00
2023-12-28T00:36:10.113Z,95510.00
2023-12-28T00:37:09.311Z,95508.00
2023-12-28T00:38:09.384Z,95510.00
2023-12-28T00:39:09.384Z,95508.00
2023-12-28T00:40:09.422Z,95507.00
2023-12-28T00:41:09.455Z,95507.00
2023-12-28T00:42:09.486Z,95506.00
2023-12-28T00:43:09.509Z,95511.00
2023-12-28T00:44:09.549Z,95513.00
2023-12-28T00:45:09.592Z,95511.00
2023-12-28T00:46:09.625Z,95516.00
2023-12-28T00:47:09.670Z,95518.00
2023-12-28T00:48:09.821Z,95518.00
2023-12-28T00:49:09.922Z,95518.00
2023-12-28T00:50:09.707Z,95521.00
2023-12-28T00:51:09.842Z,95522.00
2023-12-28T00:52:09.781Z,95523.00
2023-12-28T00:53:09.821Z,95524.00
2023-12-28T00:54:09.858Z,95524.00
2023-12-28T00:55:09.890Z,95526.00
2023-12-28T00:56:09.864Z,95529.00
2023-12-28T00:57:09.999Z,95528.00
2023-12-28T00:58:09.973Z,95531.00
2023-12-28T00:59:09.992Z,95533.00
2023-12-28T01:00:10.030Z,95536.00
2023-12-28T01:01:10.147Z,95535.00
2023-12-28T01:02:10.057Z,95534.00
2023-12-28T01:03:10.144Z,95536.00
2023-12-28T01:04:10.187Z,95539.00
2023-12-28T01:05:10.114Z,95537.00
2023-12-28T01:06:10.217Z,95540.00
2023-12-28T01:07:10.269Z,95536.00
2023-12-28T01:08:10.216Z,95536.00
2023-12-28T01:09:10.332Z,95534.00
2023-12-28T01:10:10.305Z,95530.00
2023-12-28T01:11:10.288Z,95530.00
2023-12-28T01:12:10.450Z,95534.00
2023-12-28T01:13:10.366Z,95532.00
2023-12-28T01:14:10.419Z,95535.00
2023-12-28T01:15:10.540Z,95535.00
2023-12-28T01:16:10.493Z,95535.00
2023-12-28T01:17:10.515Z,95532.00
2023-12-28T01:18:10.667Z,95530.00
2023-12-28T01:19:10.684Z,95531.00
2023-12-28T01:20:10.588Z,95532.00
2023-12-28T01:21:10.655Z,95532.00
2023-12-28T01:22:10.701Z,95535.00
2023-12-28T01:23:10.688Z,95538.00
2023-12-28T01:24:10.801Z,95538.00
2023-12-28T01:25:10.742Z,95536.00
2023-12-28T01:26:10.785Z,95534.00
2023-12-28T01:27:10.867Z,95530.00
2023-12-28T01:28:10.863Z,95531.00
2023-12-28T01:29:10.874Z,95532.00
2023-12-28T01:30:11.076Z,95534.00
2023-12-28T01:31:11.105Z,95536.00
2023-12-28T01:32:10.953Z,95536.00
2023-12-28T01:33:11.028Z,95535.00
2023-12-28T01:34:11.162Z,95537.00
2023-12-28T01:35:11.057Z,95535.00
2023-12-28T01:36:11.109Z,95535.00
2023-12-28T01:37:11.167Z,95535.00
2023-12-28T01:38:11.169Z,95535.00
2023-12-28T01:39:11.241Z,95532.00
2023-12-28T01:40:11.221Z,95533.00
2023-12-28T01:41:11.267Z,95537.00
2023-12-28T01:42:11.322Z,95540.00
2023-12-28T01:43:11.313Z,95538.00
2023-12-28T01:44:11.377Z,95543.00
2023-12-28T01:45:11.501Z,95543.00
2023-12-28T01:46:11.411Z,95545.00
2023-12-28T01:47:11.425Z,95546.00
2023-12-28T01:48:11.529Z,95548.00
2023-12-28T01:49:11.668Z,95546.00
2023-12-28T01:50:11.496Z,95547.00
2023-12-28T01:51:11.574Z,95546.00
2023-12-28T01:52:11.720Z,95544.00
2023-12-28T01:53:11.610Z,95543.00
2023-12-28T01:54:11.708Z,95542.00
2023-12-28T01:55:11.681Z,95541.00
2023-12-28T01:56:11.682Z,95539.00
2023-12-28T01:57:11.787Z,95537.00
2023-12-28T01:58:11.723Z,95537.00
2023-12-28T01:59:11.797Z,95539.00
2023-12-28T02:00:11.881Z,95539.00
2023-12-28T02:01:11.970Z,95537.00
2023-12-28T02:02:11.889Z,95539.00
2023-12-28T02:03:11.993Z,95539.00
2023-12-28T02:04:12.017Z,95539.00
2023-12-28T02:05:11.974Z,95540.00
2023-12-28T02:06:12.150Z,95539.00
2023-12-28T02:07:12.128Z,95538.00
2023-12-28T02:08:12.112Z,95538.00
2023-12-28T02:09:12.146Z,95537.00
2023-12-28T02:10:12.182Z,95532.00
2023-12-28T02:11:12.219Z,95534.00
2023-12-28T02:12:12.342Z,95534.00
2023-12-28T02:13:12.296Z,95534.00
2023-12-28T02:14:12.350Z,95533.00
2023-12-28T02:15:12.415Z,95531.00
2023-12-28T02:16:12.366Z,95530.00
2023-12-28T02:17:12.375Z,95528.00
2023-12-28T02:18:12.508Z,95526.00
2023-12-28T02:19:12.544Z,95527.00
2023-12-28T02:20:12.477Z,95525.00
2023-12-28T02:21:12.539Z,95524.00
2023-12-28T02:22:12.594Z,95525.00
2023-12-28T02:23:12.655Z,95522.00
2023-12-28T02:24:12.790Z,95523.00
2023-12-28T02:25:12.714Z,95524.00
2023-12-28T02:26:12.679Z,95523.00
2023-12-28T02:27:12.748Z,95519.00
2023-12-28T02:28:12.760Z,95515.00
2023-12-28T02:29:12.813Z,95516.00
2023-12-28T02:30:13.038Z,95519.00
2023-12-28T02:31:12.901Z,95519.00
2023-12-28T02:32:12.896Z,95519.00
2023-12-28T02:33:13.128Z,95518.00
2023-12-28T02:34:13.069Z,95517.00
2023-12-28T02:35:13.040Z,95515.00
2023-12-28T02:36:13.049Z,95513.00
2023-12-28T02:37:13.032Z,95513.00
2023-12-28T02:38:13.056Z,95515.00
2023-12-28T02:39:13.183Z,95517.00
2023-12-28T02:40:13.149Z,95517.00
2023-12-28T02:41:13.159Z,95517.00
2023-12-28T02:42:13.227Z,95514.00
2023-12-28T02:43:13.306Z,95515.00
2023-12-28T02:44:13.271Z,95514.00
2023-12-28T02:45:13.350Z,95514.00
2023-12-28T02:46:13.329Z,95515.00
2023-12-28T02:47:13.369Z,95513.00
2023-12-28T02:48:13.584Z,95515.00
2023-12-28T02:49:13.599Z,95515.00
2023-12-28T02:50:13.468Z,95512.00
2023-12-28T02:51:13.564Z,95514.00
2023-12-28T02:52:13.508Z,95512.00
2023-12-28T02:53:13.532Z,95512.00
2023-12-28T02:54:13.686Z,95513.00
2023-12-28T02:55:13.596Z,95513.00
2023-12-28T02:56:13.675Z,95510.00
2023-12-28T02:57:13.733Z,95512.00
2023-12-28T02:58:13.713Z,95514.00
2023-12-28T02:59:13.740Z,95515.00
2023-12-28T03:00:13.866Z,95515.00
2023-12-28T03:01:13.918Z,95515.00
2023-12-28T03:02:13.869Z,95516.00
2023-12-28T03:03:13.946Z,95516.00
2023-12-28T03:04:13.976Z,95515.00
2023-12-28T03:05:14.024Z,95516.00
2023-12-28T03:06:14.032Z,95514.00
2023-12-28T03:07:13.979Z,95513.00
2023-12-28T03:08:13.994Z,95513.00
2023-12-28T03:09:14.083Z,95512.00
2023-12-28T03:10:14.858Z,95508.00
2023-12-28T03:11:14.112Z,95507.00
2023-12-28T03:12:14.231Z,95512.00
2023-12-28T03:13:14.157Z,95513.00
2023-12-28T03:14:14.242Z,95515.00
2023-12-28T03:15:14.396Z,95518.00
2023-12-28T03:16:14.265Z,95517.00
2023-12-28T03:17:14.300Z,95516.00
2023-12-28T03:18:14.498Z,95515.00
2023-12-28T03:19:14.497Z,95515.00
2023-12-28T03:20:14.415Z,95516.00
2023-12-28T03:21:14.486Z,95518.00
2023-12-28T03:22:14.481Z,95522.00
2023-12-28T03:23:14.497Z,95522.00
2023-12-28T03:24:14.544Z,95525.00
2023-12-28T03:25:14.535Z,95524.00
2023-12-28T03:26:14.621Z,95524.00
2023-12-28T03:27:14.652Z,95525.00
2023-12-28T03:28:14.661Z,95527.00
2023-12-28T03:29:14.679Z,95529.00
2023-12-28T03:30:14.843Z,95531.00
2023-12-28T03:31:14.874Z,95532.00
2023-12-28T03:32:14.784Z,95537.00
2023-12-28T03:33:14.895Z,95538.00
2023-12-28T03:34:14.964Z,95539.00
2023-12-28T03:35:14.877Z,95541.00
2023-12-28T03:36:14.948Z,95540.00
2023-12-28T03:37:14.932Z,95541.00
2023-12-28T03:38:15.013Z,95540.00
2023-12-28T03:39:15.038Z,95540.00
2023-12-28T03:40:16.557Z,95538.00
2023-12-28T03:41:15.176Z,95543.00
2023-12-28T03:42:15.298Z,95548.00
2023-12-28T03:43:15.256Z,95548.00
2023-12-28T03:44:15.287Z,95548.00
2023-12-28T03:45:15.361Z,95548.00
2023-12-28T03:46:15.345Z,95547.00
2023-12-28T03:47:15.379Z,95550.00
2023-12-28T03:48:15.569Z,95553.00
2023-12-28T03:49:15.834Z,95552.00
2023-12-28T03:50:15.537Z,95554.00
2023-12-28T03:51:15.539Z,95554.00
2023-12-28T03:52:15.589Z,95555.00
2023-12-28T03:53:15.614Z,95554.00
2023-12-28T03:54:15.683Z,95556.00
2023-12-28T03:55:15.724Z,95559.00
2023-12-28T03:56:15.788Z,95561.00
2023-12-28T03:57:15.777Z,95562.00
2023-12-28T03:58:15.819Z,95562.00
2023-12-28T03:59:15.874Z,95563.00
2023-12-28T04:00:15.928Z,95563.00
2023-12-28T04:01:15.965Z,95565.00
2023-12-28T04:02:15.945Z,95566.00
2023-12-28T04:03:16.027Z,95566.00
2023-12-28T04:04:16.086Z,95568.00
2023-12-28T04:05:16.099Z,95568.00
2023-12-28T04:06:16.101Z,95569.00
2023-12-28T04:07:16.090Z,95566.00
2023-12-28T04:08:16.142Z,95564.00
2023-12-28T04:09:16.275Z,95563.00
2023-12-28T04:10:16.217Z,95565.00
2023-12-28T04:11:16.271Z,95560.00
2023-12-28T04:12:16.363Z,95561.00
2023-12-28T04:13:16.368Z,95560.00
2023-12-28T04:14:16.404Z,95560.00
2023-12-28T04:15:16.445Z,95561.00
2023-12-28T04:16:16.463Z,95563.00
2023-12-28T04:17:16.497Z,95565.00
2023-12-28T04:18:16.719Z,95560.00
2023-12-28T04:19:19.900Z,95562.00
2023-12-28T04:20:16.574Z,95560.00
2023-12-28T04:21:16.632Z,95559.00
2023-12-28T04:22:16.556Z,95559.00
2023-12-28T04:23:16.607Z,95560.00
2023-12-28T04:24:16.630Z,95559.00
2023-12-28T04:25:16.618Z,95558.00
2023-12-28T04:26:16.616Z,95555.00
2023-12-28T04:27:16.616Z,95554.00
2023-12-28T04:28:16.582Z,95554.00
2023-12-28T04:29:16.574Z,95557.00
2023-12-28T04:30:16.765Z,95555.00
2023-12-28T04:31:16.762Z,95556.00
2023-12-28T04:32:16.572Z,95559.00
2023-12-28T04:33:16.607Z,95559.00
2023-12-28T04:34:16.635Z,95560.00
2023-12-28T04:35:16.622Z,95559.00
2023-12-28T04:36:16.719Z,95561.00
2023-12-28T04:37:16.607Z,95562.00
2023-12-28T04:38:16.598Z,95565.00
2023-12-28T04:39:16.673Z,95562.00
2023-12-28T04:40:16.587Z,95566.00
2023-12-28T04:41:16.655Z,95562.00
2023-12-28T04:42:16.678Z,95562.00
2023-12-28T04:43:16.710Z,95568.00
2023-12-28T04:44:16.711Z,95570.00
2023-12-28T04:45:16.786Z,95573.00
2023-12-28T04:46:16.797Z,95569.00
2023-12-28T04:47:16.801Z,95569.00
2023-12-28T04:48:16.940Z,95571.00
2023-12-28T04:49:16.985Z,95572.00
2023-12-28T04:50:16.925Z,95574.00
2023-12-28T04:51:16.989Z,95579.00
2023-12-28T04:52:16.976Z,95579.00
2023-12-28T04:53:17.053Z,95582.00
2023-12-28T04:54:17.098Z,95578.00
2023-12-28T04:55:17.104Z,95577.00
2023-12-28T04:56:17.113Z,95576.00
2023-12-28T04:57:17.164Z,95574.00
2023-12-28T04:58:17.233Z,95574.00
2023-12-28T04:59:17.238Z,95577.00
2023-12-28T05:00:17.362Z,95578.00
2023-12-28T05:01:17.408Z,95578.00
2023-12-28T05:02:17.361Z,95580.00
2023-12-28T05:03:17.492Z,95576.00
2023-12-28T05:04:18.191Z,95576.00
2023-12-28T05:05:25.708Z,95574.00
2023-12-28T05:06:25.667Z,95575.00
2023-12-28T05:07:25.692Z,95578.00
2023-12-28T05:08:25.666Z,95579.00
2023-12-28T05:09:25.709Z,95579.00
2023-12-28T05:10:25.632Z,95577.00
2023-12-28T05:11:25.686Z,95575.00
2023-12-28T05:12:28.233Z,95576.00
2023-12-28T05:13:25.779Z,95577.00
2023-12-28T05:14:25.842Z,95576.00
2023-12-28T05:15:25.697Z,95574.00
2023-12-28T05:16:25.673Z,95577.00
2023-12-28T05:17:25.669Z,95577.00
2023-12-28T05:18:25.762Z,95574.00
2023-12-28T05:19:25.837Z,95576.00
2023-12-28T05:20:25.676Z,95573.00
2023-12-28T05:21:25.690Z,95574.00
2023-12-28T05:22:25.650Z,95574.00
2023-12-28T05:23:25.658Z,95573.00
2023-12-28T05:24:25.754Z,95573.00
2023-12-28T05:25:25.687Z,95570.00
2023-12-28T05:26:25.690Z,95572.00
2023-12-28T05:27:25.772Z,95571.00
2023-12-28T05:28:25.715Z,95572.00
2023-12-28T05:29:25.689Z,95575.00
2023-12-28T05:30:25.851Z,95576.00
2023-12-28T05:31:25.854Z,95579.00
2023-12-28T05:32:25.702Z,95582.00
2023-12-28T05:33:25.773Z,95585.00
2023-12-28T05:34:25.907Z,95584.00
2023-12-28T05:35:25.677Z,95586.00
2023-12-28T05:36:25.781Z,95585.00
2023-12-28T05:37:25.690Z,95585.00
2023-12-28T05:38:25.731Z,95586.00
2023-12-28T05:39:25.764Z,95588.00
2023-12-28T05:40:25.708Z,95588.00
2023-12-28T05:41:25.723Z,95588.00
2023-12-28T05:42:25.771Z,95590.00
2023-12-28T05:43:25.725Z,95587.00
2023-12-28T05:44:25.741Z,95590.00
2023-12-28T05:45:25.724Z,95592.00
2023-12-28T05:46:25.737Z,95595.00
2023-12-28T05:47:25.787Z,95594.00
2023-12-28T05:48:25.862Z,95597.00
2023-12-28T05:49:25.844Z,95600.00
2023-12-28T05:50:25.734Z,95599.00
2023-12-28T05:51:25.736Z,95601.00
2023-12-28T05:52:25.833Z,95600.00
2023-12-28T05:53:25.718Z,95596.00
2023-12-28T05:54:25.840Z,95594.00
2023-12-28T05:55:25.739Z,95595.00
2023-12-28T05:56:25.721Z,95596.00
2023-12-28T05:57:25.819Z,95597.00
2023-12-28T05:58:25.752Z,95598.00
2023-12-28T05:59:25.769Z,95596.00
2023-12-28T06:00:25.841Z,95594.00
2023-12-28T06:01:25.781Z,95594.00
2023-12-28T06:02:25.737Z,95594.00
2023-12-28T06:03:25.849Z,95593.00
2023-12-28T06:04:25.842Z,95595.00
2023-12-28T06:05:25.824Z,95595.00
2023-12-28T06:06:25.775Z,95599.00
2023-12-28T06:07:25.757Z,95597.00
2023-12-28T06:08:27.995Z,95599.00
2023-12-28T06:09:25.987Z,95596.00
2023-12-28T06:10:26.047Z,95594.00
2023-12-28T06:11:26.098Z,95596.00
2023-12-28T06:12:26.166Z,95598.00
2023-12-28T06:13:26.168Z,95603.00
2023-12-28T06:14:26.212Z,95605.00
2023-12-28T06:15:26.286Z,95606.00
2023-12-28T06:16:26.307Z,95605.00
2023-12-28T06:17:26.429Z,95606.00
2023-12-28T06:18:26.499Z,95606.00
2023-12-28T06:19:26.528Z,95609.00
2023-12-28T06:20:26.462Z,95611.00
2023-12-28T06:21:26.521Z,95610.00
2023-12-28T06:22:26.561Z,95611.00
2023-12-28T06:23:26.569Z,95612.00
2023-12-28T06:24:26.647Z,95614.00
2023-12-28T06:25:26.691Z,95616.00
2023-12-28T06:26:26.742Z,95618.00
2023-12-28T06:27:26.807Z,95618.00
2023-12-28T06:28:26.796Z,95617.00
2023-12-28T06:29:26.835Z,95617.00
2023-12-28T06:30:26.948Z,95615.00
2023-12-28T06:31:27.056Z,95615.00
2023-12-28T06:32:28.651Z,95612.00
2023-12-28T06:33:27.120Z,95611.00
2023-12-28T06:34:27.191Z,95612.00
2023-12-28T06:35:27.076Z,95613.00
2023-12-28T06:36:27.133Z,95612.00
2023-12-28T06:37:27.135Z,95611.00
2023-12-28T06:38:27.200Z,95611.00
2023-12-28T06:39:27.325Z,95608.00
2023-12-28T06:40:27.270Z,95605.00
2023-12-28T06:41:27.402Z,95606.00
2023-12-28T06:42:27.405Z,95605.00
2023-12-28T06:43:27.420Z,95605.00
2023-12-28T06:44:27.458Z,95606.00
2023-12-28T06:45:27.532Z,95609.00
2023-12-28T06:46:27.565Z,95606.00
2023-12-28T06:47:27.634Z,95604.00
2023-12-28T06:48:27.803Z,95603.00
2023-12-28T06:49:27.771Z,95606.00
2023-12-28T06:50:27.732Z,95604.00
2023-12-28T06:51:27.835Z,95604.00
2023-12-28T06:52:27.806Z,95599.00
2023-12-28T06:53:27.853Z,95600.00
2023-12-28T06:54:27.959Z,95598.00
2023-12-28T06:55:27.916Z,95600.00
2023-12-28T06:56:27.991Z,95601.00
2023-12-28T06:57:28.034Z,95601.00
2023-12-28T06:58:28.071Z,95599.00
2023-12-28T06:59:28.106Z,95598.00
2023-12-28T07:00:28.160Z,95597.00
2023-12-28T07:01:28.290Z,95595.00
2023-12-28T07:02:28.274Z,95598.00
2023-12-28T07:03:28.386Z,95597.00
2023-12-28T07:04:28.322Z,95596.00
2023-12-28T07:05:28.448Z,95597.00
2023-12-28T07:06:28.431Z,95597.00
2023-12-28T07:07:28.452Z,95596.00
2023-12-28T07:08:28.483Z,95595.00
2023-12-28T07:09:28.557Z,95596.00
2023-12-28T07:10:28.603Z,95603.00
2023-12-28T07:11:28.637Z,95603.00
2023-12-28T07:12:28.673Z,95601.00
2023-12-28T07:13:28.695Z,95600.00
2023-12-28T07:14:28.782Z,95598.00
2023-12-28T07:15:28.825Z,95598.00
2023-12-28T07:16:28.866Z,95595.00
2023-12-28T07:17:28.888Z,95597.00
2023-12-28T07:18:29.586Z,95594.00
2023-12-28T07:19:29.026Z,95597.00
2023-12-28T07:20:29.017Z,95597.00
2023-12-28T07:21:29.048Z,95599.00
2023-12-28T07:22:29.085Z,95599.00
2023-12-28T07:23:29.151Z,95600.00
2023-12-28T07:24:29.213Z,95599.00
2023-12-28T07:25:29.213Z,95602.00
2023-12-28T07:26:29.266Z,95605.00
2023-12-28T07:27:29.348Z,95606.00
2023-12-28T07:28:29.365Z,95603.00
2023-12-28T07:29:29.442Z,95603.00
2023-12-28T07:30:29.492Z,95604.00
2023-12-28T07:31:29.668Z,95604.00
2023-12-28T07:32:29.597Z,95607.00
2023-12-28T07:33:29.639Z,95609.00
2023-12-28T07:34:29.821Z,95611.00
2023-12-28T07:35:29.651Z,95611.00
2023-12-28T07:36:29.730Z,95612.00
2023-12-28T07:37:29.742Z,95610.00
2023-12-28T07:38:29.796Z,95611.00
2023-12-28T07:39:29.925Z,95611.00
2023-12-28T07:40:29.953Z,95611.00
2023-12-28T07:41:29.967Z,95612.00
2023-12-28T07:42:29.970Z,95610.00
2023-12-28T07:43:30.119Z,95607.00
2023-12-28T07:44:30.079Z,95606.00
2023-12-28T07:45:30.185Z,95607.00
2023-12-28T07:46:30.163Z,95606.00
2023-12-28T07:47:30.257Z,95608.00
2023-12-28T07:48:30.459Z,95607.00
2023-12-28T07:49:30.436Z,95609.00
2023-12-28T07:50:30.371Z,95608.00
2023-12-28T07:51:30.521Z,95609.00
2023-12-28T07:52:30.453Z,95615.00
2023-12-28T07:53:30.506Z,95611.00
2023-12-28T07:54:30.663Z,95610.00
2023-12-28T07:55:31.338Z,95610.00
2023-12-28T07:56:30.637Z,95610.00
2023-12-28T07:57:30.697Z,95609.00
2023-12-28T07:58:30.749Z,95610.00
2023-12-28T07:59:30.759Z,95607.00
2023-12-28T08:00:30.866Z,95613.00
2023-12-28T08:01:30.976Z,95611.00
2023-12-28T08:02:30.881Z,95613.00
2023-12-28T08:03:31.025Z,95615.00
2023-12-28T08:04:31.125Z,95615.00
2023-12-28T08:05:31.107Z,95615.00
2023-12-28T08:06:31.060Z,95615.00
2023-12-28T08:07:31.126Z,95615.00
2023-12-28T08:08:31.186Z,95613.00
2023-12-28T08:09:31.199Z,95617.00
2023-12-28T08:10:31.233Z,95616.00
2023-12-28T08:11:31.281Z,95614.00
2023-12-28T08:12:31.329Z,95617.00
2023-12-28T08:13:31.353Z,95613.00
2023-12-28T08:30:08.979Z,95623.00
2023-12-28T08:31:07.065Z,95623.00
2023-12-28T08:32:07.014Z,95624.00
2023-12-28T08:33:07.249Z,95622.00
2023-12-28T08:34:07.142Z,95625.00
2023-12-28T08:35:07.119Z,95624.00
2023-12-28T08:36:06.997Z,95625.00
2023-12-28T08:37:07.299Z,95626.00
2023-12-28T08:38:07.040Z,95624.00
2023-12-28T08:39:06.963Z,95624.00
2023-12-28T08:40:07.010Z,95625.00
2023-12-28T08:41:07.045Z,95623.00
2023-12-28T08:42:07.080Z,95626.00
2023-12-28T08:43:07.128Z,95627.00
2023-12-28T08:44:07.180Z,95626.00
2023-12-28T08:45:07.236Z,95625.00
2023-12-28T08:46:07.278Z,95626.00
2023-12-28T08:47:07.307Z,95625.00
2023-12-28T08:48:07.468Z,95626.00
2023-12-28T08:49:07.495Z,95626.00
2023-12-28T08:50:07.369Z,95622.00
2023-12-28T08:51:07.391Z,95624.00
2023-12-28T08:52:07.481Z,95622.00
2023-12-28T08:53:07.441Z,95621.00
2023-12-28T08:54:07.457Z,95620.00
2023-12-28T08:55:07.538Z,95620.00
2023-12-28T08:56:07.487Z,95620.00
2023-12-28T08:57:07.517Z,95620.00
2023-12-28T08:58:07.538Z,95625.00
2023-12-28T08:59:07.557Z,95621.00
2023-12-28T09:00:07.576Z,95621.00
2023-12-28T09:01:07.631Z,95620.00
2023-12-28T09:02:07.617Z,95619.00
2023-12-28T09:03:07.661Z,95622.00
2023-12-28T09:04:07.664Z,95621.00
2023-12-28T09:05:08.127Z,95621.00
2023-12-28T09:06:07.678Z,95622.00
2023-12-28T09:07:07.740Z,95623.00
2023-12-28T09:08:07.750Z,95622.00
2023-12-28T09:09:07.763Z,95619.00
2023-12-28T09:10:07.800Z,95620.00
2023-12-28T09:11:07.802Z,95617.00
2023-12-28T09:12:07.829Z,95618.00
2023-12-28T09:13:07.831Z,95614.00
2023-12-28T09:14:07.842Z,95614.00
2023-12-28T09:15:07.869Z,95615.00
2023-12-28T09:16:08.150Z,95615.00
2023-12-28T09:17:07.892Z,95612.00
2023-12-28T09:18:08.113Z,95612.00
2023-12-28T09:19:08.019Z,95612.00
2023-12-28T09:20:07.942Z,95609.00
2023-12-28T09:21:07.963Z,95608.00
2023-12-28T09:22:07.963Z,95607.00
2023-12-28T09:23:08.003Z,95604.00
2023-12-28T09:24:07.965Z,95607.00
2023-12-28T09:25:08.023Z,95605.00
2023-12-28T09:26:08.017Z,95605.00
2023-12-28T09:27:08.105Z,95602.00
2023-12-28T09:28:08.094Z,95600.00
2023-12-28T09:29:08.063Z,95598.00
2023-12-28T09:30:08.179Z,95595.00
2023-12-28T09:31:08.210Z,95592.00
2023-12-28T09:32:08.157Z,95588.00
2023-12-28T09:33:08.205Z,95586.00
2023-12-28T09:34:08.267Z,95586.00
2023-12-28T09:35:08.135Z,95584.00
2023-12-28T09:36:08.149Z,95581.00
2023-12-28T09:37:08.178Z,95580.00
2023-12-28T09:38:08.181Z,95579.00
2023-12-28T09:39:08.190Z,95576.00
2023-12-28T09:40:08.618Z,95580.00
2023-12-28T09:41:08.224Z,95579.00
2023-12-28T09:42:08.257Z,95574.00
2023-12-28T09:43:08.321Z,95568.00
2023-12-28T09:44:08.268Z,95569.00
2023-12-28T09:45:08.334Z,95567.00
2023-12-28T09:46:08.393Z,95565.00
2023-12-28T09:47:08.358Z,95565.00
2023-12-28T09:48:08.760Z,95561.00
2023-12-28T09:49:08.468Z,95557.00
2023-12-28T09:50:08.417Z,95556.00
2023-12-28T09:51:10.513Z,95553.00
2023-12-28T09:52:08.456Z,95553.00
2023-12-28T09:53:08.415Z,95553.00
2023-12-28T09:54:08.437Z,95550.00
2023-12-28T09:55:08.493Z,95551.00
2023-12-28T09:56:08.409Z,95551.00
2023-12-28T09:57:08.456Z,95554.00
2023-12-28T09:58:08.579Z,95555.00
2023-12-28T09:59:08.427Z,95555.00
2023-12-28T10:00:08.434Z,95555.00
2023-12-28T10:01:08.510Z,95554.00
2023-12-28T10:02:08.470Z,95552.00
2023-12-28T10:03:08.448Z,95552.00
2023-12-28T10:04:08.493Z,95556.00
2023-12-28T10:05:08.448Z,95553.00
2023-12-28T10:06:08.607Z,95552.00
2023-12-28T10:07:08.452Z,95549.00
2023-12-28T10:08:08.485Z,95546.00
2023-12-28T10:09:08.485Z,95541.00
2023-12-28T10:10:08.470Z,95539.00
2023-12-28T10:11:08.463Z,95536.00
2023-12-28T10:12:08.477Z,95532.00
2023-12-28T10:13:08.561Z,95533.00
2023-12-28T10:14:08.866Z,95532.00
2023-12-28T10:15:08.466Z,95530.00
2023-12-28T10:16:08.490Z,95529.00
2023-12-28T10:17:08.447Z,95529.00
2023-12-28T10:18:08.500Z,95532.00
2023-12-28T10:19:08.563Z,95531.00
2023-12-28T10:20:08.498Z,95530.00
2023-12-28T10:21:08.460Z,95528.00
2023-12-28T10:22:08.453Z,95526.00
2023-12-28T10:23:08.624Z,95523.00
2023-12-28T10:24:08.463Z,95521.00
2023-12-28T10:25:08.539Z,95522.00
2023-12-28T10:26:08.542Z,95519.00
2023-12-28T10:27:08.465Z,95517.00
2023-12-28T10:28:08.478Z,95518.00
2023-12-28T10:29:08.496Z,95515.00
2023-12-28T10:30:08.506Z,95514.00
2023-12-28T10:31:08.521Z,95513.00
2023-12-28T10:32:10.314Z,95510.00
2023-12-28T10:33:08.753Z,95508.00
2023-12-28T10:34:08.603Z,95506.00
2023-12-28T10:35:08.456Z,95500.00
2023-12-28T10:36:08.570Z,95496.00
2023-12-28T10:37:08.550Z,95491.00
2023-12-28T10:38:08.480Z,95492.00
2023-12-28T10:39:08.627Z,95492.00
2023-12-28T10:40:08.564Z,95494.00
2023-12-28T10:41:08.750Z,95495.00
2023-12-28T10:42:08.641Z,95496.00
2023-12-28T10:43:09.001Z,95496.00
2023-12-28T10:44:10.267Z,95493.00
2023-12-28T10:45:08.708Z,95490.00
2023-12-28T10:46:08.865Z,95488.00
2023-12-28T10:47:08.755Z,95481.00
2023-12-28T10:48:08.963Z,95476.00
2023-12-28T10:49:08.871Z,95473.00
2023-12-28T10:50:09.098Z,95472.00
2023-12-28T10:51:08.842Z,95467.00
2023-12-28T10:52:08.850Z,95463.00
2023-12-28T10:53:08.855Z,95461.00
2023-12-28T10:54:08.869Z,95456.00
2023-12-28T10:55:08.948Z,95453.00
2023-12-28T10:56:09.133Z,95449.00
2023-12-28T10:57:08.982Z,95449.00
2023-12-28T10:58:08.995Z,95450.00
2023-12-28T10:59:09.076Z,95450.00
2023-12-28T11:00:09.092Z,95448.00
2023-12-28T11:01:09.186Z,95446.00
2023-12-28T11:02:09.226Z,95444.00
2023-12-28T11:03:09.222Z,95438.00
2023-12-28T11:04:09.229Z,95433.00
2023-12-28T11:05:09.357Z,95428.00
2023-12-28T11:06:09.242Z,95424.00
2023-12-28T11:07:09.318Z,95422.00
2023-12-28T11:08:09.270Z,95421.00
2023-12-28T11:09:10.648Z,95419.00
2023-12-28T11:10:09.482Z,95421.00
2023-12-28T11:11:09.397Z,95418.00
2023-12-28T11:12:09.453Z,95416.00
2023-12-28T11:13:10.176Z,95411.00
2023-12-28T11:14:09.519Z,95410.00
2023-12-28T11:15:11.006Z,95407.00
2023-12-28T11:16:09.699Z,95409.00
2023-12-28T11:17:09.649Z,95410.00
2023-12-28T11:18:09.856Z,95412.00
2023-12-28T11:19:09.861Z,95412.00
2023-12-28T11:20:09.736Z,95408.00
2023-12-28T11:21:10.414Z,95407.00
2023-12-28T11:22:09.818Z,95405.00
2023-12-28T11:23:09.845Z,95402.00
2023-12-28T11:24:09.893Z,95398.00
2023-12-28T11:25:09.963Z,95396.00
2023-12-28T11:26:09.994Z,95395.00
2023-12-28T11:27:11.431Z,95394.00
2023-12-28T11:28:10.049Z,95396.00
2023-12-28T11:29:10.128Z,95395.00
2023-12-28T11:30:10.191Z,95395.00
2023-12-28T11:31:10.302Z,95391.00
2023-12-28T11:32:11.168Z,95391.00
2023-12-28T11:33:10.381Z,95388.00
2023-12-28T11:34:13.830Z,95386.00
2023-12-28T11:35:10.353Z,95382.00
2023-12-28T11:36:10.415Z,95380.00
2023-12-28T11:37:10.331Z,95377.00
2023-12-28T11:38:10.345Z,95376.00
2023-12-28T11:39:10.324Z,95370.00
2023-12-28T11:40:10.403Z,95369.00
2023-12-28T11:41:10.349Z,95368.00
2023-12-28T11:42:10.363Z,95365.00
2023-12-28T11:43:10.381Z,95364.00
2023-12-28T11:44:10.373Z,95362.00
2023-12-28T11:45:10.337Z,95364.00
2023-12-28T11:46:10.422Z,95362.00
2023-12-28T11:47:10.373Z,95358.00
2023-12-28T11:48:10.419Z,95355.00
2023-12-28T11:49:10.460Z,95353.00
2023-12-28T11:50:10.467Z,95347.00
2023-12-28T11:51:10.401Z,95348.00
2023-12-28T11:52:10.358Z,95345.00
2023-12-28T11:53:10.356Z,95340.00
2023-12-28T11:54:10.365Z,95338.00
2023-12-28T11:55:10.427Z,95335.00
2023-12-28T11:56:10.449Z,95331.00
2023-12-28T11:57:10.459Z,95329.00
2023-12-28T11:58:13.358Z,95328.00
2023-12-28T11:59:10.501Z,95324.00
2023-12-28T12:00:10.566Z,95323.00
2023-12-28T12:01:10.617Z,95322.00